Time;durP1;ratioP1;P1;durP2;ratioP2;P2;SDS_P1;SDS_P2;PMS_P1;PMS_P2;Temp;Humidity;BMP_temperature;BMP_pressure;BME280_temperature;BME280_humidity;BME280_pressure;Samples;Min_cycle;Max_cycle;Signal;HPM_P1;HPM_P2
2023/12/17 00:00:09;;;;;;;24.60;14.32;;;1.70;99.90;;;0.85;100.00;103568.03;4201290;28;20028;-70
2023/12/17 00:02:10;;;;;;;26.10;16.08;;;1.70;99.90;;;0.83;100.00;103575.03;4167649;28;20037;-70
2023/12/17 00:04:11;;;;;;;27.02;15.13;;;1.60;99.90;;;0.81;100.00;103565.50;4200743;28;20059;-70
2023/12/17 00:06:12;;;;;;;25.55;15.40;;;1.60;99.90;;;0.84;100.00;103571.53;4168611;28;20033;-70
2023/12/17 00:08:13;;;;;;;23.83;13.32;;;1.60;99.90;;;0.85;100.00;103573.25;4167711;28;20025;-70
2023/12/17 00:10:14;;;;;;;19.85;11.93;;;1.60;99.90;;;0.82;100.00;103565.50;4168795;28;20515;-70
2023/12/17 00:12:14;;;;;;;23.08;12.57;;;1.60;99.90;;;0.78;100.00;103561.22;4168813;28;20061;-71
2023/12/17 00:14:15;;;;;;;16.75;10.95;;;1.60;99.90;;;0.76;100.00;103560.41;4167469;28;20041;-70
2023/12/17 00:16:16;;;;;;;18.10;11.27;;;1.60;99.90;;;0.71;100.00;103562.22;4157553;28;20021;-71
2023/12/17 00:18:17;;;;;;;22.25;13.18;;;1.50;99.90;;;0.70;100.00;103555.31;4167769;28;20036;-71
2023/12/17 00:20:18;;;;;;;23.70;14.13;;;1.50;99.90;;;0.57;100.00;103541.63;4168696;28;20405;-71
2023/12/17 00:22:19;;;;;;;25.15;13.02;;;1.50;99.90;;;0.66;100.00;103556.22;4168731;28;20048;-71
2023/12/17 00:24:19;;;;;;;24.42;13.77;;;1.40;99.90;;;0.67;100.00;103557.94;4167337;28;20030;-71
2023/12/17 00:26:20;;;;;;;27.20;13.55;;;1.50;99.90;;;0.68;100.00;103551.88;4167087;28;20072;-71
2023/12/17 00:28:21;;;;;;;25.10;12.13;;;1.50;99.90;;;0.69;100.00;103550.97;4183998;28;20384;-71
2023/12/17 00:30:22;;;;;;;18.88;12.40;;;1.50;99.90;;;0.68;100.00;103549.28;4167427;28;20017;-71
2023/12/17 00:32:23;;;;;;;17.98;11.73;;;1.50;99.90;;;0.65;100.00;103538.06;4200389;28;20024;-71
2023/12/17 00:34:24;;;;;;;22.45;12.20;;;1.50;99.90;;;0.64;100.00;103542.41;4184148;28;20025;-71
2023/12/17 00:36:24;;;;;;;20.58;13.20;;;1.50;99.90;;;0.66;100.00;103542.41;4166838;28;20488;-71
2023/12/17 00:38:25;;;;;;;25.80;14.43;;;1.40;99.90;;;0.65;100.00;103538.94;4168558;28;20033;-71
2023/12/17 00:40:26;;;;;;;28.27;15.02;;;1.40;99.90;;;0.64;100.00;103532.03;4166945;28;20401;-71
2023/12/17 00:42:27;;;;;;;23.05;14.55;;;1.40;99.90;;;0.60;100.00;103525.16;4168883;28;20033;-71
2023/12/17 00:44:28;;;;;;;31.08;15.90;;;1.40;99.90;;;0.66;100.00;103534.59;4167536;28;20029;-71
2023/12/17 00:46:29;;;;;;;27.48;15.05;;;1.40;99.90;;;0.65;100.00;103532.88;4168375;28;20022;-71
2023/12/17 00:48:31;;;;;;;23.90;15.45;;;1.40;99.90;;;0.63;100.00;103530.28;4169793;28;20028;-70
2023/12/17 00:50:31;;;;;;;19.75;12.80;;;1.40;99.90;;;0.61;100.00;103531.19;4170716;28;20022;-71
2023/12/17 00:52:33;;;;;;;25.25;11.68;;;1.40;99.90;;;0.61;100.00;103532.06;4171082;28;20500;-71
2023/12/17 00:54:34;;;;;;;19.80;11.82;;;1.40;99.90;;;0.56;100.00;103523.50;4171239;28;20025;-71
2023/12/17 00:56:35;;;;;;;18.17;11.65;;;1.40;99.90;;;0.52;100.00;103527.88;4201490;28;20025;-71
2023/12/17 00:58:36;;;;;;;24.23;13.27;;;1.30;99.90;;;0.47;100.00;103524.50;4170469;28;20036;-70
2023/12/17 01:00:37;;;;;;;17.85;12.07;;;1.30;99.90;;;0.41;100.00;103518.53;4171703;28;20029;-71
2023/12/17 01:02:37;;;;;;;20.40;11.88;;;1.30;99.90;;;0.42;100.00;103528.03;4170446;28;20056;-71
2023/12/17 01:04:39;;;;;;;19.48;12.18;;;1.30;99.90;;;0.39;100.00;103512.50;4170980;28;20033;-71
2023/12/17 01:06:39;;;;;;;21.95;12.05;;;1.20;99.90;;;0.36;100.00;103509.97;4168366;28;20026;-71
2023/12/17 01:08:40;;;;;;;20.40;11.60;;;1.20;99.90;;;0.34;100.00;103501.31;4172542;28;20029;-71
2023/12/17 01:10:43;;;;;;;19.33;12.25;;;1.10;99.90;;;0.30;100.00;103492.72;4175912;28;20021;-71
2023/12/17 01:12:43;;;;;;;22.48;13.38;;;1.10;99.90;;;0.34;100.00;103490.94;4171557;28;20052;-71
2023/12/17 01:14:44;;;;;;;18.65;12.35;;;1.20;99.90;;;0.35;100.00;103497.88;4171431;28;20026;-71
2023/12/17 01:16:46;;;;;;;19.27;11.82;;;1.20;99.90;;;0.35;100.00;103492.66;4171314;28;20046;-71
2023/12/17 01:18:46;;;;;;;16.13;10.48;;;1.20;99.90;;;0.29;100.00;103480.66;4170219;28;20021;-71
2023/12/17 01:20:47;;;;;;;21.38;11.88;;;1.20;99.90;;;0.32;100.00;103488.38;4169582;28;20405;-70
2023/12/17 01:22:48;;;;;;;18.67;12.63;;;1.20;99.90;;;0.36;100.00;103489.19;4170167;28;20044;-71
2023/12/17 01:24:54;;;;;;;18.88;11.45;;;1.10;99.90;;;0.34;100.00;103494.41;4201042;28;20083;-70
2023/12/17 01:26:55;;;;;;;22.48;11.57;;;1.20;99.90;;;0.31;100.00;103483.19;4181309;28;20056;-70
2023/12/17 01:28:56;;;;;;;17.67;11.35;;;1.10;99.90;;;0.27;100.00;103476.38;4169967;28;20089;-71
2023/12/17 01:30:57;;;;;;;18.05;10.85;;;1.10;99.90;;;0.28;100.00;103485.84;4170074;28;20647;-71
2023/12/17 01:32:58;;;;;;;26.65;14.18;;;1.10;99.90;;;0.25;100.00;103475.50;4171193;28;20045;-71
2023/12/17 01:34:58;;;;;;;24.10;14.57;;;1.10;99.90;;;0.23;100.00;103472.09;4166930;28;20029;-71
2023/12/17 01:36:59;;;;;;;30.98;15.18;;;1.10;99.90;;;0.22;100.00;103475.56;4200283;28;20067;-71
2023/12/17 01:39:00;;;;;;;22.63;14.77;;;1.00;99.90;;;0.21;100.00;103481.66;4169920;28;20040;-71
2023/12/17 01:41:01;;;;;;;19.83;12.35;;;1.00;99.90;;;0.21;100.00;103476.47;4170743;28;20030;-71
2023/12/17 01:43:03;;;;;;;20.30;12.95;;;1.00;99.90;;;0.17;100.00;103472.19;4170995;28;20112;-71
2023/12/17 01:45:06;;;;;;;18.42;12.85;;;1.00;99.90;;;0.14;100.00;103467.03;4167176;28;20025;-71
2023/12/17 01:47:07;;;;;;;19.52;12.90;;;1.00;99.90;;;0.03;100.00;103454.19;4156989;28;20041;-71
2023/12/17 01:49:08;;;;;;;19.67;12.50;;;0.90;99.90;;;0.09;100.00;103468.84;4170952;28;20026;-71
2023/12/17 01:51:09;;;;;;;22.52;14.40;;;1.00;99.90;;;0.07;100.00;103461.06;4170892;28;20029;-71
2023/12/17 01:53:12;;;;;;;31.98;15.88;;;0.90;99.90;;;0.08;100.00;103465.38;4168957;28;20026;-71
2023/12/17 01:55:13;;;;;;;28.67;16.50;;;0.90;99.90;;;0.06;100.00;103459.34;4156274;28;20076;-71
2023/12/17 01:57:14;;;;;;;26.50;16.77;;;0.90;99.90;;;0.12;100.00;103468.81;4153352;28;20032;-71
2023/12/17 01:59:15;;;;;;;29.75;15.43;;;0.90;99.90;;;0.11;100.00;103454.97;4170072;28;20036;-71
2023/12/17 02:01:16;;;;;;;25.42;14.55;;;0.90;99.90;;;0.00;100.00;103436.94;4169408;28;20037;-71
2023/12/17 02:03:17;;;;;;;23.15;14.20;;;0.90;99.90;;;0.14;100.00;103456.66;4169337;28;20025;-72
2023/12/17 02:05:18;;;;;;;32.08;14.90;;;0.90;99.90;;;0.07;100.00;103455.88;4155516;28;20441;-71
2023/12/17 02:07:19;;;;;;;22.15;14.88;;;0.90;99.90;;;0.05;100.00;103456.78;4195640;28;20035;-71
2023/12/17 02:09:20;;;;;;;28.42;16.33;;;0.90;99.90;;;0.02;100.00;103465.47;4169463;28;20021;-71
2023/12/17 02:11:21;;;;;;;27.55;14.48;;;0.90;99.90;;;-0.02;100.00;103459.47;4170399;28;20369;-71
2023/12/17 02:13:21;;;;;;;24.23;14.82;;;0.80;99.90;;;-0.08;100.00;103443.13;4170569;28;20098;-71
2023/12/17 02:15:22;;;;;;;30.00;16.23;;;0.80;99.90;;;-0.06;100.00;103444.81;4163711;28;20022;-71
2023/12/17 02:17:31;;;;;;;29.17;17.77;;;0.80;99.90;;;-0.04;100.00;103450.00;4198364;28;20036;-70
2023/12/17 02:19:32;;;;;;;27.73;17.60;;;0.80;99.90;;;-0.04;100.00;103447.41;4169302;28;20385;-71
2023/12/17 02:21:33;;;;;;;28.77;18.02;;;0.80;99.90;;;-0.03;100.00;103452.56;4169472;28;20036;-71
2023/12/17 02:23:34;;;;;;;34.13;17.77;;;0.80;99.90;;;-0.03;100.00;103444.78;4170386;28;20037;-71
2023/12/17 02:25:35;;;;;;;24.23;16.50;;;0.80;99.90;;;-0.05;100.00;103441.34;4162987;28;20473;-71
2023/12/17 02:27:37;;;;;;;25.98;14.38;;;0.80;99.90;;;-0.10;100.00;103430.19;4185294;28;20036;-71
2023/12/17 02:29:38;;;;;;;25.63;15.10;;;0.80;99.90;;;-0.15;100.00;103434.56;4202158;28;20065;-71
2023/12/17 02:31:39;;;;;;;21.92;15.25;;;0.80;99.90;;;-0.14;100.00;103441.47;4152571;28;20029;-71
2023/12/17 02:33:40;;;;;;;27.23;17.20;;;0.70;99.90;;;-0.19;100.00;103432.06;4169344;28;20493;-71
2023/12/17 02:35:40;;;;;;;31.38;17.33;;;0.70;99.90;;;-0.19;100.00;103437.25;4163869;28;20488;-71
2023/12/17 02:37:41;;;;;;;25.90;15.38;;;0.70;99.90;;;-0.20;100.00;103431.19;4170204;28;20033;-71
2023/12/17 02:39:42;;;;;;;27.33;15.57;;;0.60;99.90;;;-0.27;100.00;103424.38;4169911;28;20397;-71
2023/12/17 02:41:43;;;;;;;25.25;15.13;;;0.60;99.90;;;-0.26;100.00;103423.50;4152600;28;20424;-71
2023/12/17 02:43:44;;;;;;;30.02;15.85;;;0.60;99.90;;;-0.32;100.00;103415.81;4169941;28;20100;-71
2023/12/17 02:45:45;;;;;;;32.50;18.17;;;0.50;99.90;;;-0.35;100.00;103404.59;4170140;28;20022;-71
2023/12/17 02:47:45;;;;;;;23.65;15.77;;;0.50;99.90;;;-0.34;100.00;103403.75;4169072;28;20022;-71
2023/12/17 02:49:46;;;;;;;23.60;15.38;;;0.50;99.90;;;-0.35;100.00;103409.78;4170121;28;20025;-71
2023/12/17 02:51:47;;;;;;;26.00;14.15;;;0.50;99.90;;;-0.37;100.00;103396.88;4168018;28;20049;-71
2023/12/17 02:53:48;;;;;;;27.90;15.75;;;0.50;99.90;;;-0.41;100.00;103402.09;4169081;28;20117;-71
2023/12/17 02:55:49;;;;;;;32.17;16.80;;;0.50;99.90;;;-0.39;100.00;103397.78;4201423;28;20029;-71
2023/12/17 02:57:50;;;;;;;39.85;16.85;;;0.50;99.90;;;-0.37;100.00;103391.69;4168780;28;20030;-71
2023/12/17 02:59:54;;;;;;;25.25;15.98;;;0.50;99.90;;;-0.42;100.00;103380.53;4169736;28;20026;-71
2023/12/17 03:01:55;;;;;;;29.00;14.32;;;0.40;99.90;;;-0.41;100.00;103383.94;4168877;28;20032;-71
2023/12/17 03:03:58;;;;;;;27.02;14.38;;;0.50;99.90;;;-0.41;100.00;103379.63;4168559;28;20396;-71
2023/12/17 03:05:58;;;;;;;25.58;14.55;;;0.50;99.90;;;-0.43;100.00;103378.81;4184695;28;20622;-71
2023/12/17 03:07:59;;;;;;;30.15;16.10;;;0.40;99.90;;;-0.42;100.00;103375.34;4168427;28;20029;-71
2023/12/17 03:10:00;;;;;;;29.85;16.30;;;0.40;99.90;;;-0.40;100.00;103377.91;4167286;28;20030;-71
2023/12/17 03:12:02;;;;;;;31.75;16.02;;;0.40;99.90;;;-0.41;100.00;103374.44;4200371;28;20032;-70
2023/12/17 03:14:03;;;;;;;44.10;18.77;;;0.40;99.90;;;-0.39;100.00;103371.84;4168616;28;20414;-71
2023/12/17 03:16:08;;;;;;;35.78;19.00;;;0.50;99.90;;;-0.40;100.00;103370.97;4161113;28;20041;-71
2023/12/17 03:18:09;;;;;;;36.97;18.23;;;0.40;99.90;;;-0.39;100.00;103377.88;4168813;28;20049;-71
2023/12/17 03:20:11;;;;;;;29.17;15.82;;;0.40;99.90;;;-0.45;100.00;103366.75;4169527;28;20382;-71
2023/12/17 03:22:12;;;;;;;27.45;15.88;;;0.40;99.90;;;-0.44;100.00;103369.28;4168269;28;20028;-71
2023/12/17 03:24:12;;;;;;;30.25;17.25;;;0.40;99.90;;;-0.48;100.00;103367.66;4152014;28;20026;-71
2023/12/17 03:26:13;;;;;;;31.05;15.55;;;0.40;99.90;;;-0.57;100.00;103352.22;4168682;28;20029;-70
2023/12/17 03:28:14;;;;;;;29.20;17.38;;;0.40;99.90;;;-0.54;100.00;103357.38;4151756;28;20033;-71
2023/12/17 03:30:15;;;;;;;25.85;14.85;;;0.30;99.90;;;-0.56;100.00;103356.50;4165058;28;20085;-71
2023/12/17 03:32:16;;;;;;;32.58;15.75;;;0.30;99.90;;;-0.62;100.00;103348.81;4169135;28;20036;-71
2023/12/17 03:34:17;;;;;;;32.38;15.43;;;0.30;99.90;;;-0.46;100.00;103354.66;4169295;28;20029;-71
2023/12/17 03:36:18;;;;;;;37.67;18.15;;;0.40;99.90;;;-0.37;100.00;103354.50;4165563;28;20034;-71
2023/12/17 03:38:19;;;;;;;34.25;17.67;;;0.50;99.90;;;-0.38;100.00;103361.44;4169157;28;20026;-71
2023/12/17 03:40:19;;;;;;;34.05;17.67;;;0.40;99.90;;;-0.40;100.00;103363.19;4167574;28;20087;-71
2023/12/17 03:42:20;;;;;;;25.45;14.75;;;0.40;99.90;;;-0.41;100.00;103358.03;4168062;28;20022;-71
2023/12/17 03:44:21;;;;;;;25.58;14.75;;;0.40;99.90;;;-0.43;100.00;103367.56;4169145;28;20026;-71
2023/12/17 03:46:24;;;;;;;27.60;16.35;;;0.40;99.90;;;-0.48;100.00;103357.28;4167905;28;20025;-71
2023/12/17 03:48:25;;;;;;;32.38;17.35;;;0.40;99.90;;;-0.49;100.00;103360.75;4167944;28;20036;-71
2023/12/17 03:50:26;;;;;;;31.20;16.70;;;0.40;99.90;;;-0.52;100.00;103358.19;4167858;28;20022;-71
2023/12/17 03:52:27;;;;;;;30.80;16.50;;;0.40;99.90;;;-0.52;100.00;103360.78;4168596;28;20037;-71
2023/12/17 03:54:28;;;;;;;28.40;15.32;;;0.30;99.90;;;-0.48;100.00;103370.25;4167629;28;20025;-71
2023/12/17 03:56:29;;;;;;;23.17;15.38;;;0.40;99.90;;;-0.50;100.00;103364.19;4155386;28;20517;-71
2023/12/17 03:58:30;;;;;;;33.83;16.95;;;0.40;99.90;;;-0.48;100.00;103357.28;4169010;28;20401;-71
2023/12/17 04:00:31;;;;;;;30.48;18.25;;;0.40;99.90;;;-0.53;100.00;103351.28;4169011;28;20031;-71
2023/12/17 04:02:33;;;;;;;23.33;14.55;;;0.40;99.90;;;-0.40;100.00;103372.72;4167876;28;20026;-71
2023/12/17 04:04:34;;;;;;;27.70;15.52;;;0.40;99.90;;;-0.42;100.00;103377.94;4168786;28;20040;-71
2023/12/17 04:06:34;;;;;;;29.10;15.70;;;0.40;99.90;;;-0.35;100.00;103378.69;4158937;28;20021;-71
2023/12/17 04:08:36;;;;;;;30.80;17.73;;;0.40;99.90;;;-0.32;100.00;103374.31;4169000;28;20025;-71
2023/12/17 04:10:37;;;;;;;30.63;17.63;;;0.50;99.90;;;-0.30;100.00;103366.53;4134764;28;20465;-71
2023/12/17 04:12:38;;;;;;;32.83;18.23;;;0.50;99.90;;;-0.26;100.00;103368.16;4168670;28;20033;-71
2023/12/17 04:14:40;;;;;;;31.08;17.23;;;0.50;99.90;;;-0.24;100.00;103369.84;4167736;28;20032;-71
2023/12/17 04:16:41;;;;;;;32.40;16.30;;;0.50;99.90;;;-0.27;100.00;103372.50;4151078;28;20053;-71
2023/12/17 04:18:42;;;;;;;34.25;16.50;;;0.60;99.90;;;-0.27;100.00;103362.13;4194821;28;20021;-71
2023/12/17 04:20:43;;;;;;;28.30;15.60;;;0.50;99.90;;;-0.32;100.00;103355.28;4184013;28;20032;-71
2023/12/17 04:22:44;;;;;;;20.20;13.95;;;0.60;99.90;;;-0.34;100.00;103360.53;4167255;28;20477;-71
2023/12/17 04:24:45;;;;;;;29.40;14.90;;;0.60;99.90;;;-0.30;100.00;103363.94;4151127;28;20026;-71
2023/12/17 04:26:45;;;;;;;31.38;15.77;;;0.50;99.90;;;-0.23;100.00;103361.22;4167296;28;20022;-71
2023/12/17 04:28:46;;;;;;;30.13;16.35;;;0.60;99.90;;;-0.13;100.00;103370.56;4167332;28;20501;-71
2023/12/17 04:30:47;;;;;;;25.85;15.15;;;0.70;99.90;;;-0.01;100.00;103365.19;4168616;28;20030;-71
2023/12/17 04:32:48;;;;;;;27.60;15.38;;;0.80;99.90;;;0.11;100.00;103358.09;4183881;28;20036;-71
2023/12/17 04:34:50;;;;;;;23.55;13.27;;;0.90;99.90;;;0.18;100.00;103364.91;4167383;28;20053;-71
2023/12/17 04:36:51;;;;;;;27.77;15.80;;;0.90;99.90;;;0.20;100.00;103353.59;4165950;28;20029;-71
2023/12/17 04:38:51;;;;;;;28.83;16.05;;;1.00;99.90;;;0.25;100.00;103356.09;4168602;28;20029;-71
2023/12/17 04:40:52;;;;;;;29.65;15.05;;;1.00;99.90;;;0.31;100.00;103361.19;4167067;28;20040;-71
2023/12/17 04:42:53;;;;;;;28.52;14.38;;;1.10;99.90;;;0.35;100.00;103360.28;4167376;28;20025;-71
2023/12/17 04:44:54;;;;;;;26.92;15.88;;;1.10;99.90;;;0.39;100.00;103360.16;4167469;28;20513;-71
2023/12/17 04:46:57;;;;;;;28.70;14.82;;;1.20;99.90;;;0.42;100.00;103361.84;4150902;28;20078;-71
2023/12/17 04:48:58;;;;;;;30.70;17.60;;;1.20;99.90;;;0.47;100.00;103363.50;4189536;28;20498;-71
2023/12/17 04:50:59;;;;;;;35.42;16.25;;;1.30;99.90;;;0.52;100.00;103363.41;4167441;28;20029;-71
2023/12/17 04:53:00;;;;;;;38.40;18.15;;;1.30;99.90;;;0.55;100.00;103360.75;4167781;28;20037;-71
2023/12/17 04:55:01;;;;;;;33.90;17.08;;;1.30;99.90;;;0.60;100.00;103366.72;4166919;28;20038;-71
2023/12/17 04:57:01;;;;;;;31.65;16.45;;;1.40;99.90;;;0.62;100.00;103375.34;4157384;28;20055;-71
2023/12/17 04:59:02;;;;;;;31.92;16.20;;;1.40;99.90;;;0.59;100.00;103362.44;4168433;28;20033;-71
2023/12/17 05:01:03;;;;;;;36.53;16.60;;;1.40;99.90;;;0.65;100.00;103366.66;4167001;28;20104;-71
2023/12/17 05:03:05;;;;;;;29.48;16.50;;;1.50;99.90;;;0.68;100.00;103374.38;4167042;28;20029;-71
2023/12/17 05:05:07;;;;;;;34.42;16.20;;;1.50;99.90;;;0.70;100.00;103373.47;4166837;28;20061;-71
2023/12/17 05:07:08;;;;;;;25.73;15.25;;;1.50;99.90;;;0.73;100.00;103375.16;4200277;28;20036;-71
2023/12/17 05:09:10;;;;;;;32.22;16.42;;;1.50;99.90;;;0.73;100.00;103373.41;4176286;28;20480;-71
2023/12/17 05:11:10;;;;;;;35.33;17.40;;;1.50;99.90;;;0.76;100.00;103362.09;4169405;28;20030;-71
2023/12/17 05:13:12;;;;;;;28.48;16.05;;;1.60;99.90;;;0.81;100.00;103362.84;4168385;28;20088;-71
2023/12/17 05:15:13;;;;;;;29.67;17.45;;;1.60;99.90;;;0.84;100.00;103363.66;4150582;28;20037;-71
2023/12/17 05:17:13;;;;;;;35.60;18.73;;;1.60;99.90;;;0.83;100.00;103364.56;4168369;28;20065;-71
2023/12/17 05:19:14;;;;;;;26.15;16.27;;;1.60;99.90;;;0.87;100.00;103358.41;4166593;28;20079;-71
2023/12/17 05:21:15;;;;;;;41.45;17.42;;;1.60;99.90;;;0.91;100.00;103364.41;4167039;28;20030;-71
2023/12/17 05:23:16;;;;;;;32.13;14.77;;;1.70;99.90;;;0.90;100.00;103355.75;4168257;28;20501;-71
2023/12/17 05:25:17;;;;;;;30.27;16.35;;;1.70;99.90;;;1.02;100.00;103365.03;4166618;28;20412;-71
2023/12/17 05:27:18;;;;;;;27.33;15.65;;;1.80;99.90;;;1.06;100.00;103358.91;4168034;28;20060;-71
2023/12/17 05:29:19;;;;;;;41.13;17.75;;;1.80;99.90;;;1.04;100.00;103353.75;4167128;28;20051;-71
2023/12/17 05:31:19;;;;;;;23.08;16.10;;;1.90;99.90;;;1.09;100.00;103361.44;4159612;28;20030;-71
2023/12/17 05:33:20;;;;;;;31.38;16.77;;;1.90;99.90;;;1.13;100.00;103357.91;4200221;28;20411;-71
2023/12/17 05:35:21;;;;;;;63.40;20.30;;;1.90;99.90;;;1.11;100.00;103350.13;4167615;28;20022;-71
2023/12/17 05:37:22;;;;;;;28.33;15.10;;;1.90;99.90;;;1.15;100.00;103343.13;4170018;28;20028;-71
2023/12/17 05:39:23;;;;;;;22.02;13.70;;;2.00;99.90;;;1.16;100.00;103354.38;4169667;28;20022;-71
2023/12/17 05:41:24;;;;;;;35.90;17.33;;;2.00;99.90;;;1.22;100.00;103355.09;4169757;28;20211;-71
2023/12/17 05:43:25;;;;;;;21.85;14.77;;;2.00;99.90;;;1.25;100.00;103359.38;4171046;28;20037;-71
2023/12/17 05:45:26;;;;;;;22.15;14.77;;;2.00;99.90;;;1.28;100.00;103359.31;4169768;28;20036;-71
2023/12/17 05:47:27;;;;;;;19.95;14.13;;;2.00;99.90;;;1.29;100.00;103355.81;4171146;28;20025;-71
2023/12/17 05:49:27;;;;;;;45.33;18.17;;;2.10;99.90;;;1.29;100.00;103355.81;4202975;28;20492;-71
2023/12/17 05:51:28;;;;;;;23.55;16.35;;;2.10;99.90;;;1.32;100.00;103355.75;4169037;28;20508;-71
2023/12/17 05:53:29;;;;;;;22.58;15.95;;;2.10;99.90;;;1.34;100.00;103361.78;4170896;28;20481;-71
2023/12/17 05:55:30;;;;;;;32.25;16.88;;;2.10;99.90;;;1.32;100.00;103347.94;4167357;28;20513;-71
2023/12/17 05:57:31;;;;;;;25.45;14.93;;;2.10;99.90;;;1.34;100.00;103353.97;4179560;28;20424;-71
2023/12/17 05:59:32;;;;;;;26.90;16.38;;;2.10;99.90;;;1.33;100.00;103353.13;4167148;28;20500;-71
2023/12/17 06:01:33;;;;;;;34.88;16.65;;;2.10;99.90;;;1.33;100.00;103354.88;4169476;28;20040;-71
2023/12/17 06:03:35;;;;;;;38.67;16.65;;;2.10;99.90;;;1.26;100.00;103348.06;4202617;28;20029;-71
2023/12/17 06:05:36;;;;;;;26.55;16.77;;;2.10;99.90;;;1.32;100.00;103358.34;4165701;28;20022;-71
2023/12/17 06:07:37;;;;;;;30.67;16.63;;;2.10;99.90;;;1.36;100.00;103357.41;4198534;28;20075;-71
2023/12/17 06:09:38;;;;;;;41.85;16.73;;;2.10;99.90;;;1.38;100.00;103366.00;4170214;28;20021;-71
2023/12/17 06:11:41;;;;;;;35.17;17.38;;;2.20;99.90;;;1.35;100.00;103360.88;4170750;28;20561;-71
2023/12/17 06:13:42;;;;;;;29.77;16.25;;;2.20;99.90;;;1.38;100.00;103366.00;4169202;28;20037;-71
2023/12/17 06:15:43;;;;;;;37.28;19.02;;;2.20;99.90;;;1.41;100.00;103364.22;4165862;28;20022;-71
2023/12/17 06:17:44;;;;;;;25.65;16.95;;;2.20;99.90;;;1.32;100.00;103345.34;4169766;28;20467;-71
2023/12/17 06:19:45;;;;;;;44.58;17.75;;;2.30;99.90;;;1.45;100.00;103372.81;4170768;28;20024;-71
2023/12/17 06:21:46;;;;;;;44.33;18.45;;;2.30;99.90;;;1.44;100.00;103366.75;4170534;28;20455;-71
2023/12/17 06:23:47;;;;;;;49.50;17.65;;;2.30;99.90;;;1.45;100.00;103365.00;4169262;28;20029;-71
2023/12/17 06:25:48;;;;;;;36.30;16.02;;;2.30;99.90;;;1.45;100.00;103365.00;4170185;28;20071;-71
2023/12/17 06:27:52;;;;;;;29.60;16.30;;;2.30;99.90;;;1.45;100.00;103367.59;4170412;28;20402;-71
2023/12/17 06:29:54;;;;;;;22.88;15.38;;;2.30;99.90;;;1.47;100.00;103371.00;4169161;28;20041;-71
2023/12/17 06:31:55;;;;;;;37.80;17.27;;;2.30;99.90;;;1.44;100.00;103366.75;4170314;28;20033;-71
2023/12/17 06:33:55;;;;;;;22.08;14.35;;;2.30;99.90;;;1.47;100.00;103376.22;4169223;28;20025;-71
2023/12/17 06:35:57;;;;;;;25.55;14.77;;;2.30;99.90;;;1.47;100.00;103376.22;4168779;28;20025;-71
2023/12/17 06:37:58;;;;;;;67.55;18.52;;;2.30;99.90;;;1.48;100.00;103377.94;4169041;28;20159;-71
2023/12/17 06:39:58;;;;;;;66.22;19.20;;;2.30;99.90;;;1.47;100.00;103371.00;4168676;28;20436;-71
2023/12/17 06:41:59;;;;;;;48.10;16.30;;;2.30;99.90;;;1.41;100.00;103369.41;4152477;28;20052;-71
2023/12/17 06:44:00;;;;;;;85.75;19.15;;;2.30;99.90;;;1.36;100.00;103362.59;4169051;28;20030;-71
2023/12/17 06:46:01;;;;;;;51.47;17.83;;;2.20;99.90;;;1.28;100.00;103365.38;4168798;28;20024;-71
2023/12/17 06:48:02;;;;;;;19.27;13.88;;;2.20;99.90;;;1.27;100.00;103370.59;4168877;28;20029;-71
2023/12/17 06:50:04;;;;;;;45.78;16.50;;;2.20;99.90;;;1.29;100.00;103368.81;4168725;28;20044;-71
2023/12/17 06:52:05;;;;;;;55.92;16.42;;;2.20;99.90;;;1.29;100.00;103374.88;4184813;28;20025;-71
2023/12/17 06:54:07;;;;;;;44.85;16.95;;;2.20;99.90;;;1.28;100.00;103372.31;4168293;28;20485;-71
2023/12/17 06:56:08;;;;;;;45.88;16.88;;;2.20;99.90;;;1.31;100.00;103367.06;4168574;28;20017;-71
2023/12/17 06:58:09;;;;;;;22.98;13.40;;;2.20;99.90;;;1.27;100.00;103373.19;4169707;28;20386;-71
2023/12/17 07:00:11;;;;;;;58.40;16.23;;;2.10;99.90;;;1.28;100.00;103377.50;4168655;28;20036;-71
2023/12/17 07:02:12;;;;;;;88.30;17.33;;;2.20;99.90;;;1.26;100.00;103368.88;4172368;28;20481;-70
2023/12/17 07:04:13;;;;;;;68.20;16.33;;;2.10;99.90;;;1.21;100.00;103365.53;4169552;28;20029;-70
2023/12/17 07:06:13;;;;;;;151.55;21.92;;;2.10;99.90;;;1.18;100.00;103376.84;4201624;28;20415;-70
2023/12/17 07:08:14;;;;;;;31.38;15.65;;;2.10;99.90;;;1.17;100.00;103367.31;4169447;28;20033;-70
2023/12/17 07:10:16;;;;;;;69.47;19.25;;;2.00;99.90;;;1.12;100.00;103366.56;4169188;28;20026;-70
2023/12/17 07:12:17;;;;;;;46.03;17.77;;;2.00;99.90;;;1.04;100.00;103365.88;4168603;28;20096;-71
2023/12/17 07:14:17;;;;;;;142.35;23.92;;;2.00;99.90;;;1.08;100.00;103363.16;4169479;28;20401;-71
2023/12/17 07:16:22;;;;;;;29.23;14.35;;;1.90;99.90;;;1.08;100.00;103362.31;4167635;28;20034;-71
2023/12/17 07:18:23;;;;;;;51.40;15.82;;;2.00;99.90;;;1.13;100.00;103371.72;4184742;28;20528;-71
2023/12/17 07:20:24;;;;;;;124.07;19.35;;;1.90;99.90;;;1.13;100.00;103367.44;4169522;28;20103;-71
2023/12/17 07:22:25;;;;;;;172.65;22.73;;;2.00;99.90;;;1.13;100.00;103370.03;4168070;28;20025;-71
2023/12/17 07:24:26;;;;;;;184.68;21.00;;;2.00;99.90;;;1.13;100.00;103367.44;4169302;28;20025;-71
2023/12/17 07:26:26;;;;;;;122.88;20.15;;;2.00;99.90;;;1.10;100.00;103356.22;4167814;28;20052;-70
2023/12/17 07:28:27;;;;;;;130.20;20.95;;;2.00;99.90;;;1.13;100.00;103361.31;4151917;28;20370;-71
2023/12/17 07:30:28;;;;;;;145.27;22.00;;;2.00;99.90;;;1.09;100.00;103370.09;4168071;28;20497;-71
2023/12/17 07:32:29;;;;;;;237.68;26.73;;;2.00;99.90;;;1.09;100.00;103362.28;4168252;28;20492;-71
2023/12/17 07:34:30;;;;;;;194.05;23.30;;;1.90;99.90;;;1.07;100.00;103356.28;4167996;28;20106;-71
2023/12/17 07:36:30;;;;;;;106.20;21.27;;;1.90;99.90;;;1.05;100.00;103357.19;4191006;28;20040;-71
2023/12/17 07:38:33;;;;;;;58.63;17.00;;;1.90;99.90;;;1.01;100.00;103361.59;4166059;28;20033;-71
2023/12/17 07:40:34;;;;;;;113.72;20.65;;;1.90;99.90;;;1.02;100.00;103360.69;4168958;28;20029;-71
2023/12/17 07:42:35;;;;;;;52.70;15.18;;;1.90;99.90;;;1.03;100.00;103369.34;4169242;28;20499;-71
2023/12/17 07:44:35;;;;;;;40.08;14.75;;;1.90;99.90;;;1.04;100.00;103361.53;4169294;28;20014;-71
2023/12/17 07:46:36;;;;;;;48.33;20.15;;;1.90;99.90;;;1.05;100.00;103360.63;4167902;28;20044;-72
2023/12/17 07:48:37;;;;;;;40.40;20.23;;;1.90;99.90;;;1.02;100.00;103355.50;4155885;28;20032;-71
2023/12/17 07:50:40;;;;;;;29.85;18.60;;;1.90;99.90;;;1.06;100.00;103359.75;4167804;28;20033;-71
2023/12/17 07:52:41;;;;;;;177.15;22.75;;;1.90;99.90;;;1.08;100.00;103364.91;4167738;28;20041;-71
2023/12/17 07:54:42;;;;;;;124.63;19.55;;;1.90;99.90;;;1.05;100.00;103360.63;4167657;28;20033;-71
2023/12/17 07:56:43;;;;;;;199.18;23.75;;;1.90;99.90;;;1.02;100.00;103360.69;4167076;28;20029;-71
2023/12/17 07:58:44;;;;;;;79.60;18.85;;;1.90;99.90;;;1.01;100.00;103366.81;4200595;28;20036;-70
2023/12/17 08:00:45;;;;;;;123.32;20.58;;;1.90;99.90;;;1.00;100.00;103359.03;4168954;28;20025;-71
2023/12/17 08:02:46;;;;;;;28.02;12.63;;;1.90;99.90;;;1.03;100.00;103365.03;4168871;28;20033;-71
2023/12/17 08:04:47;;;;;;;147.98;20.23;;;1.90;99.90;;;1.04;100.00;103377.13;4168601;28;20021;-71
2023/12/17 08:06:48;;;;;;;57.25;16.60;;;1.90;99.90;;;1.04;100.00;103374.53;4173739;28;20103;-71
2023/12/17 08:08:56;;;;;;;44.55;15.88;;;1.90;99.90;;;1.06;100.00;103371.91;4200940;28;20024;-71
2023/12/17 08:10:56;;;;;;;87.88;17.98;;;2.00;99.90;;;1.12;100.00;103379.56;4167397;28;20084;-72
2023/12/17 08:12:57;;;;;;;128.10;21.75;;;1.90;99.90;;;1.14;100.00;103375.19;4167475;28;20033;-71
2023/12/17 08:14:58;;;;;;;63.65;16.63;;;2.00;99.90;;;1.10;100.00;103370.97;4167664;28;20025;-71